sensor_id;sensor_type;location;lat;lon;timestamp;P1;durP1;ratioP1;P2;durP2;ratioP2
12359;SDS011;6244;51.460;7.090;2023-11-21T00:00:40;2.45;;;2.08;;
12359;SDS011;6244;51.460;7.090;2023-11-21T00:05:37;4.45;;;2.40;;
12359;SDS011;6244;51.460;7.090;2023-11-21T00:10:34;2.75;;;1.52;;
12359;SDS011;6244;51.460;7.090;2023-11-21T00:15:34;3.83;;;2.42;;
12359;SDS011;6244;51.460;7.090;2023-11-21T00:20:31;3.58;;;2.35;;
12359;SDS011;6244;51.460;7.090;2023-11-21T00:25:27;4.10;;;2.40;;
12359;SDS011;6244;51.460;7.090;2023-11-21T00:30:24;2.28;;;2.00;;
12359;SDS011;6244;51.460;7.090;2023-11-21T00:35:22;4.60;;;2.15;;
12359;SDS011;6244;51.460;7.090;2023-11-21T00:40:18;2.80;;;2.22;;
12359;SDS011;6244;51.460;7.090;2023-11-21T00:45:16;3.47;;;2.40;;
12359;SDS011;6244;51.460;7.090;2023-11-21T00:50:12;4.32;;;2.15;;
12359;SDS011;6244;51.460;7.090;2023-11-21T00:55:10;3.40;;;2.13;;
12359;SDS011;6244;51.460;7.090;2023-11-21T01:00:07;2.80;;;1.83;;
12359;SDS011;6244;51.460;7.090;2023-11-21T01:05:08;1.65;;;1.55;;
12359;SDS011;6244;51.460;7.090;2023-11-21T01:10:05;4.35;;;1.88;;
12359;SDS011;6244;51.460;7.090;2023-11-21T01:15:05;2.20;;;2.00;;
12359;SDS011;6244;51.460;7.090;2023-11-21T01:20:03;2.65;;;1.90;;
12359;SDS011;6244;51.460;7.090;2023-11-21T01:25:06;1.35;;;1.27;;
12359;SDS011;6244;51.460;7.090;2023-11-21T01:30:03;5.55;;;2.90;;
12359;SDS011;6244;51.460;7.090;2023-11-21T01:35:03;3.63;;;2.33;;
12359;SDS011;6244;51.460;7.090;2023-11-21T01:40:01;2.30;;;1.77;;
12359;SDS011;6244;51.460;7.090;2023-11-21T01:45:00;2.92;;;1.77;;
12359;SDS011;6244;51.460;7.090;2023-11-21T01:50:01;1.90;;;1.70;;
12359;SDS011;6244;51.460;7.090;2023-11-21T01:54:59;2.95;;;1.75;;
12359;SDS011;6244;51.460;7.090;2023-11-21T01:59:56;1.80;;;1.67;;
12359;SDS011;6244;51.460;7.090;2023-11-21T02:05:07;2.58;;;2.20;;
12359;SDS011;6244;51.460;7.090;2023-11-21T02:10:05;3.05;;;2.05;;
12359;SDS011;6244;51.460;7.090;2023-11-21T02:15:02;3.28;;;2.20;;
12359;SDS011;6244;51.460;7.090;2023-11-21T02:20:00;3.42;;;1.83;;
12359;SDS011;6244;51.460;7.090;2023-11-21T02:24:58;1.75;;;1.45;;
12359;SDS011;6244;51.460;7.090;2023-11-21T02:29:55;3.17;;;2.08;;
12359;SDS011;6244;51.460;7.090;2023-11-21T02:34:51;2.42;;;1.67;;
12359;SDS011;6244;51.460;7.090;2023-11-21T02:39:50;1.95;;;1.50;;
12359;SDS011;6244;51.460;7.090;2023-11-21T02:44:47;1.63;;;1.52;;
12359;SDS011;6244;51.460;7.090;2023-11-21T02:49:44;4.38;;;2.72;;
12359;SDS011;6244;51.460;7.090;2023-11-21T02:54:40;1.92;;;1.70;;
12359;SDS011;6244;51.460;7.090;2023-11-21T02:59:37;2.15;;;1.92;;
12359;SDS011;6244;51.460;7.090;2023-11-21T03:04:36;3.33;;;2.25;;
12359;SDS011;6244;51.460;7.090;2023-11-21T03:09:32;1.75;;;1.50;;
12359;SDS011;6244;51.460;7.090;2023-11-21T03:14:29;1.67;;;1.45;;
12359;SDS011;6244;51.460;7.090;2023-11-21T03:19:25;3.75;;;1.98;;
12359;SDS011;6244;51.460;7.090;2023-11-21T03:24:23;2.65;;;1.60;;
12359;SDS011;6244;51.460;7.090;2023-11-21T03:29:20;3.03;;;1.92;;
12359;SDS011;6244;51.460;7.090;2023-11-21T03:34:19;3.38;;;1.77;;
12359;SDS011;6244;51.460;7.090;2023-11-21T03:39:19;3.07;;;2.00;;
12359;SDS011;6244;51.460;7.090;2023-11-21T03:44:18;2.83;;;1.88;;
12359;SDS011;6244;51.460;7.090;2023-11-21T03:49:14;3.97;;;2.40;;
12359;SDS011;6244;51.460;7.090;2023-11-21T03:54:11;2.50;;;1.60;;
12359;SDS011;6244;51.460;7.090;2023-11-21T03:59:09;2.13;;;1.80;;
12359;SDS011;6244;51.460;7.090;2023-11-21T04:04:08;1.92;;;1.55;;
12359;SDS011;6244;51.460;7.090;2023-11-21T04:09:04;3.30;;;1.88;;
12359;SDS011;6244;51.460;7.090;2023-11-21T04:14:01;2.50;;;2.05;;
12359;SDS011;6244;51.460;7.090;2023-11-21T04:18:57;4.28;;;2.35;;
12359;SDS011;6244;51.460;7.090;2023-11-21T04:23:55;4.20;;;1.98;;
12359;SDS011;6244;51.460;7.090;2023-11-21T04:28:51;2.00;;;1.77;;
12359;SDS011;6244;51.460;7.090;2023-11-21T04:33:48;1.90;;;1.40;;
12359;SDS011;6244;51.460;7.090;2023-11-21T04:38:45;3.78;;;1.85;;
12359;SDS011;6244;51.460;7.090;2023-11-21T04:43:42;4.07;;;2.10;;
12359;SDS011;6244;51.460;7.090;2023-11-21T04:48:39;3.03;;;1.73;;
12359;SDS011;6244;51.460;7.090;2023-11-21T04:53:35;2.85;;;2.00;;
12359;SDS011;6244;51.460;7.090;2023-11-21T04:58:32;3.15;;;1.75;;
12359;SDS011;6244;51.460;7.090;2023-11-21T05:03:30;1.75;;;1.42;;
12359;SDS011;6244;51.460;7.090;2023-11-21T05:08:27;3.08;;;2.28;;
12359;SDS011;6244;51.460;7.090;2023-11-21T05:13:23;3.17;;;2.20;;
12359;SDS011;6244;51.460;7.090;2023-11-21T05:18:22;5.20;;;2.13;;
12359;SDS011;6244;51.460;7.090;2023-11-21T05:23:23;2.75;;;1.90;;
12359;SDS011;6244;51.460;7.090;2023-11-21T05:28:19;1.55;;;1.45;;
12359;SDS011;6244;51.460;7.090;2023-11-21T05:33:16;2.67;;;1.48;;
12359;SDS011;6244;51.460;7.090;2023-11-21T05:38:12;4.88;;;2.10;;
12359;SDS011;6244;51.460;7.090;2023-11-21T05:43:10;2.65;;;1.92;;
12359;SDS011;6244;51.460;7.090;2023-11-21T05:48:07;2.47;;;1.75;;
12359;SDS011;6244;51.460;7.090;2023-11-21T05:53:03;3.58;;;2.25;;
12359;SDS011;6244;51.460;7.090;2023-11-21T05:58:00;3.30;;;2.30;;
12359;SDS011;6244;51.460;7.090;2023-11-21T06:02:58;3.83;;;2.53;;
12359;SDS011;6244;51.460;7.090;2023-11-21T06:07:55;3.17;;;2.05;;
12359;SDS011;6244;51.460;7.090;2023-11-21T06:12:53;2.97;;;2.50;;
12359;SDS011;6244;51.460;7.090;2023-11-21T06:17:50;2.47;;;1.95;;
12359;SDS011;6244;51.460;7.090;2023-11-21T06:22:49;2.80;;;2.05;;
12359;SDS011;6244;51.460;7.090;2023-11-21T06:27:47;1.98;;;1.52;;
12359;SDS011;6244;51.460;7.090;2023-11-21T06:32:44;2.63;;;1.85;;
12359;SDS011;6244;51.460;7.090;2023-11-21T06:37:41;3.13;;;1.92;;
12359;SDS011;6244;51.460;7.090;2023-11-21T06:42:43;3.33;;;2.05;;
12359;SDS011;6244;51.460;7.090;2023-11-21T06:47:42;2.75;;;2.13;;
12359;SDS011;6244;51.460;7.090;2023-11-21T06:52:38;3.72;;;2.38;;
12359;SDS011;6244;51.460;7.090;2023-11-21T06:57:35;3.80;;;2.50;;
12359;SDS011;6244;51.460;7.090;2023-11-21T07:02:33;4.63;;;2.97;;
12359;SDS011;6244;51.460;7.090;2023-11-21T07:07:29;3.25;;;2.28;;
12359;SDS011;6244;51.460;7.090;2023-11-21T07:12:26;2.58;;;1.92;;
12359;SDS011;6244;51.460;7.090;2023-11-21T07:17:23;4.20;;;2.10;;
12359;SDS011;6244;51.460;7.090;2023-11-21T07:22:20;3.22;;;2.13;;
12359;SDS011;6244;51.460;7.090;2023-11-21T07:27:17;3.80;;;2.88;;
12359;SDS011;6244;51.460;7.090;2023-11-21T07:32:14;2.90;;;1.75;;
12359;SDS011;6244;51.460;7.090;2023-11-21T07:37:11;5.50;;;2.53;;
12359;SDS011;6244;51.460;7.090;2023-11-21T07:42:09;4.95;;;2.28;;
12359;SDS011;6244;51.460;7.090;2023-11-21T07:47:06;4.35;;;2.58;;
12359;SDS011;6244;51.460;7.090;2023-11-21T07:52:02;4.32;;;2.47;;
12359;SDS011;6244;51.460;7.090;2023-11-21T07:56:59;3.20;;;2.05;;
12359;SDS011;6244;51.460;7.090;2023-11-21T08:01:57;2.45;;;2.10;;
12359;SDS011;6244;51.460;7.090;2023-11-21T08:06:54;4.32;;;2.47;;
12359;SDS011;6244;51.460;7.090;2023-11-21T08:11:51;3.95;;;2.85;;
12359;SDS011;6244;51.460;7.090;2023-11-21T08:16:48;3.78;;;2.20;;
12359;SDS011;6244;51.460;7.090;2023-11-21T08:21:45;6.03;;;2.78;;
12359;SDS011;6244;51.460;7.090;2023-11-21T08:26:42;4.38;;;2.92;;
12359;SDS011;6244;51.460;7.090;2023-11-21T08:31:39;4.75;;;2.35;;
12359;SDS011;6244;51.460;7.090;2023-11-21T08:36:36;4.97;;;2.92;;
12359;SDS011;6244;51.460;7.090;2023-11-21T08:41:33;5.55;;;3.30;;
12359;SDS011;6244;51.460;7.090;2023-11-21T08:46:31;5.60;;;2.90;;
12359;SDS011;6244;51.460;7.090;2023-11-21T08:51:28;6.20;;;4.72;;
12359;SDS011;6244;51.460;7.090;2023-11-21T08:56:25;11.40;;;4.35;;
12359;SDS011;6244;51.460;7.090;2023-11-21T09:01:23;7.70;;;3.90;;
12359;SDS011;6244;51.460;7.090;2023-11-21T09:06:19;9.38;;;4.88;;
12359;SDS011;6244;51.460;7.090;2023-11-21T09:11:16;8.30;;;3.60;;
12359;SDS011;6244;51.460;7.090;2023-11-21T09:16:13;9.77;;;4.38;;
12359;SDS011;6244;51.460;7.090;2023-11-21T09:21:11;11.07;;;4.55;;
12359;SDS011;6244;51.460;7.090;2023-11-21T09:26:08;10.35;;;3.72;;
12359;SDS011;6244;51.460;7.090;2023-11-21T09:31:05;10.55;;;4.75;;
12359;SDS011;6244;51.460;7.090;2023-11-21T09:36:04;13.10;;;5.53;;
12359;SDS011;6244;51.460;7.090;2023-11-21T09:41:02;5.50;;;3.80;;
12359;SDS011;6244;51.460;7.090;2023-11-21T09:46:01;12.45;;;4.72;;
12359;SDS011;6244;51.460;7.090;2023-11-21T09:50:59;10.27;;;4.15;;
12359;SDS011;6244;51.460;7.090;2023-11-21T09:55:58;15.05;;;4.40;;
12359;SDS011;6244;51.460;7.090;2023-11-21T10:00:58;8.73;;;4.68;;
12359;SDS011;6244;51.460;7.090;2023-11-21T10:05:58;11.35;;;4.32;;
12359;SDS011;6244;51.460;7.090;2023-11-21T10:10:56;9.90;;;4.65;;
12359;SDS011;6244;51.460;7.090;2023-11-21T10:15:54;15.13;;;6.13;;
12359;SDS011;6244;51.460;7.090;2023-11-21T10:20:52;8.23;;;4.25;;
12359;SDS011;6244;51.460;7.090;2023-11-21T10:25:50;11.93;;;4.32;;
12359;SDS011;6244;51.460;7.090;2023-11-21T10:30:47;8.02;;;4.05;;
12359;SDS011;6244;51.460;7.090;2023-11-21T10:35:44;19.25;;;5.80;;
12359;SDS011;6244;51.460;7.090;2023-11-21T10:40:47;13.65;;;4.85;;
12359;SDS011;6244;51.460;7.090;2023-11-21T10:45:44;9.85;;;4.18;;
12359;SDS011;6244;51.460;7.090;2023-11-21T10:50:41;7.57;;;5.15;;
12359;SDS011;6244;51.460;7.090;2023-11-21T10:55:38;11.20;;;4.05;;
12359;SDS011;6244;51.460;7.090;2023-11-21T11:00:36;10.23;;;4.63;;
12359;SDS011;6244;51.460;7.090;2023-11-21T11:05:35;12.30;;;4.78;;
12359;SDS011;6244;51.460;7.090;2023-11-21T11:10:32;9.20;;;4.45;;
12359;SDS011;6244;51.460;7.090;2023-11-21T11:15:28;12.50;;;4.43;;
12359;SDS011;6244;51.460;7.090;2023-11-21T11:20:27;11.07;;;4.32;;
12359;SDS011;6244;51.460;7.090;2023-11-21T11:25:30;13.00;;;4.60;;
12359;SDS011;6244;51.460;7.090;2023-11-21T11:30:43;12.23;;;4.55;;
12359;SDS011;6244;51.460;7.090;2023-11-21T11:35:52;17.60;;;5.55;;
12359;SDS011;6244;51.460;7.090;2023-11-21T11:40:57;9.75;;;4.82;;
12359;SDS011;6244;51.460;7.090;2023-11-21T11:45:59;14.20;;;4.93;;
12359;SDS011;6244;51.460;7.090;2023-11-21T11:51:02;12.80;;;5.45;;
12359;SDS011;6244;51.460;7.090;2023-11-21T12:01:22;6.40;;;4.55;;
12359;SDS011;6244;51.460;7.090;2023-11-21T12:06:28;10.27;;;6.20;;
12359;SDS011;6244;51.460;7.090;2023-11-21T12:11:30;10.35;;;4.70;;
12359;SDS011;6244;51.460;7.090;2023-11-21T12:16:27;15.32;;;6.88;;
12359;SDS011;6244;51.460;7.090;2023-11-21T12:21:23;14.57;;;5.47;;
12359;SDS011;6244;51.460;7.090;2023-11-21T12:26:23;12.23;;;5.03;;
12359;SDS011;6244;51.460;7.090;2023-11-21T12:31:20;13.48;;;6.53;;
12359;SDS011;6244;51.460;7.090;2023-11-21T12:36:16;10.35;;;5.10;;
12359;SDS011;6244;51.460;7.090;2023-11-21T12:41:15;7.60;;;3.63;;
12359;SDS011;6244;51.460;7.090;2023-11-21T12:46:13;6.03;;;3.70;;
12359;SDS011;6244;51.460;7.090;2023-11-21T12:51:12;6.53;;;3.58;;
12359;SDS011;6244;51.460;7.090;2023-11-21T12:56:11;6.72;;;3.88;;
12359;SDS011;6244;51.460;7.090;2023-11-21T13:01:08;7.78;;;4.13;;
12359;SDS011;6244;51.460;7.090;2023-11-21T13:06:08;5.97;;;3.30;;
12359;SDS011;6244;51.460;7.090;2023-11-21T13:11:05;5.30;;;3.40;;
12359;SDS011;6244;51.460;7.090;2023-11-21T13:16:02;5.55;;;3.78;;
12359;SDS011;6244;51.460;7.090;2023-11-21T13:21:01;3.75;;;2.35;;
12359;SDS011;6244;51.460;7.090;2023-11-21T13:26:00;4.90;;;3.08;;
12359;SDS011;6244;51.460;7.090;2023-11-21T13:30:59;4.47;;;2.40;;
12359;SDS011;6244;51.460;7.090;2023-11-21T13:35:59;6.00;;;3.05;;
12359;SDS011;6244;51.460;7.090;2023-11-21T13:40:57;5.28;;;2.72;;
12359;SDS011;6244;51.460;7.090;2023-11-21T13:45:55;3.20;;;1.75;;
12359;SDS011;6244;51.460;7.090;2023-11-21T13:50:56;4.18;;;2.88;;
12359;SDS011;6244;51.460;7.090;2023-11-21T13:55:54;4.20;;;1.92;;
12359;SDS011;6244;51.460;7.090;2023-11-21T14:00:52;3.92;;;2.63;;
12359;SDS011;6244;51.460;7.090;2023-11-21T14:05:53;4.15;;;2.35;;
12359;SDS011;6244;51.460;7.090;2023-11-21T14:10:51;6.05;;;3.00;;
12359;SDS011;6244;51.460;7.090;2023-11-21T14:15:52;3.20;;;2.03;;
12359;SDS011;6244;51.460;7.090;2023-11-21T14:20:55;3.17;;;2.70;;
12359;SDS011;6244;51.460;7.090;2023-11-21T14:25:52;2.90;;;1.40;;
12359;SDS011;6244;51.460;7.090;2023-11-21T14:30:48;2.70;;;1.75;;
12359;SDS011;6244;51.460;7.090;2023-11-21T14:35:45;2.72;;;1.77;;
12359;SDS011;6244;51.460;7.090;2023-11-21T14:40:43;3.40;;;2.33;;
12359;SDS011;6244;51.460;7.090;2023-11-21T14:45:40;4.50;;;2.30;;
12359;SDS011;6244;51.460;7.090;2023-11-21T14:50:36;3.00;;;1.77;;
12359;SDS011;6244;51.460;7.090;2023-11-21T14:56:08;3.55;;;2.05;;
12359;SDS011;6244;51.460;7.090;2023-11-21T15:01:06;1.85;;;1.25;;
12359;SDS011;6244;51.460;7.090;2023-11-21T15:06:04;2.15;;;1.75;;
12359;SDS011;6244;51.460;7.090;2023-11-21T15:11:15;1.92;;;1.65;;
12359;SDS011;6244;51.460;7.090;2023-11-21T15:16:11;3.42;;;1.85;;
12359;SDS011;6244;51.460;7.090;2023-11-21T15:21:08;1.52;;;1.42;;
12359;SDS011;6244;51.460;7.090;2023-11-21T15:26:07;3.63;;;1.52;;
12359;SDS011;6244;51.460;7.090;2023-11-21T15:31:06;1.95;;;1.45;;
12359;SDS011;6244;51.460;7.090;2023-11-21T15:36:03;2.15;;;1.10;;
12359;SDS011;6244;51.460;7.090;2023-11-21T15:41:04;2.30;;;1.55;;
12359;SDS011;6244;51.460;7.090;2023-11-21T15:46:03;2.17;;;1.55;;
12359;SDS011;6244;51.460;7.090;2023-11-21T15:51:02;1.77;;;1.20;;
12359;SDS011;6244;51.460;7.090;2023-11-21T15:55:59;1.67;;;1.40;;
12359;SDS011;6244;51.460;7.090;2023-11-21T16:00:56;3.08;;;2.47;;
12359;SDS011;6244;51.460;7.090;2023-11-21T16:05:54;3.95;;;2.00;;
12359;SDS011;6244;51.460;7.090;2023-11-21T16:10:51;3.53;;;2.47;;
12359;SDS011;6244;51.460;7.090;2023-11-21T16:15:47;3.67;;;2.58;;
12359;SDS011;6244;51.460;7.090;2023-11-21T16:20:44;6.25;;;2.35;;
12359;SDS011;6244;51.460;7.090;2023-11-21T16:25:42;5.00;;;2.45;;
12359;SDS011;6244;51.460;7.090;2023-11-21T16:30:40;4.03;;;2.20;;
12359;SDS011;6244;51.460;7.090;2023-11-21T16:35:36;3.83;;;2.42;;
12359;SDS011;6244;51.460;7.090;2023-11-21T16:40:34;2.83;;;1.90;;
12359;SDS011;6244;51.460;7.090;2023-11-21T16:45:33;4.45;;;2.38;;
12359;SDS011;6244;51.460;7.090;2023-11-21T16:50:29;2.85;;;2.50;;
12359;SDS011;6244;51.460;7.090;2023-11-21T16:55:26;3.88;;;2.83;;
12359;SDS011;6244;51.460;7.090;2023-11-21T17:00:22;4.13;;;2.40;;
12359;SDS011;6244;51.460;7.090;2023-11-21T17:05:20;3.15;;;2.50;;
12359;SDS011;6244;51.460;7.090;2023-11-21T17:10:17;4.28;;;2.88;;
12359;SDS011;6244;51.460;7.090;2023-11-21T17:15:15;3.10;;;2.05;;
12359;SDS011;6244;51.460;7.090;2023-11-21T17:20:11;3.10;;;2.20;;
12359;SDS011;6244;51.460;7.090;2023-11-21T17:25:10;4.60;;;2.35;;
12359;SDS011;6244;51.460;7.090;2023-11-21T17:30:07;2.97;;;2.05;;
12359;SDS011;6244;51.460;7.090;2023-11-21T17:35:05;5.00;;;2.30;;
12359;SDS011;6244;51.460;7.090;2023-11-21T17:40:02;2.17;;;1.95;;
12359;SDS011;6244;51.460;7.090;2023-11-21T17:45:03;1.58;;;1.48;;
12359;SDS011;6244;51.460;7.090;2023-11-21T17:50:00;3.63;;;2.22;;
12359;SDS011;6244;51.460;7.090;2023-11-21T17:54:57;2.90;;;1.63;;
12359;SDS011;6244;51.460;7.090;2023-11-21T17:59:53;2.83;;;2.53;;
12359;SDS011;6244;51.460;7.090;2023-11-21T18:04:51;2.90;;;2.20;;
12359;SDS011;6244;51.460;7.090;2023-11-21T18:09:48;3.03;;;1.83;;
12359;SDS011;6244;51.460;7.090;2023-11-21T18:14:45;3.38;;;2.03;;
12359;SDS011;6244;51.460;7.090;2023-11-21T18:19:43;4.03;;;2.25;;
12359;SDS011;6244;51.460;7.090;2023-11-21T18:24:41;2.20;;;2.00;;
12359;SDS011;6244;51.460;7.090;2023-11-21T18:29:38;4.25;;;2.53;;
12359;SDS011;6244;51.460;7.090;2023-11-21T18:34:34;2.17;;;1.98;;
12359;SDS011;6244;51.460;7.090;2023-11-21T18:39:31;2.60;;;1.77;;
12359;SDS011;6244;51.460;7.090;2023-11-21T18:44:30;2.70;;;1.65;;
12359;SDS011;6244;51.460;7.090;2023-11-21T18:49:27;2.95;;;2.08;;
12359;SDS011;6244;51.460;7.090;2023-11-21T18:54:24;2.80;;;1.73;;
12359;SDS011;6244;51.460;7.090;2023-11-21T18:59:20;4.30;;;2.45;;
12359;SDS011;6244;51.460;7.090;2023-11-21T19:04:18;3.45;;;2.15;;
12359;SDS011;6244;51.460;7.090;2023-11-21T19:09:19;2.47;;;1.77;;
12359;SDS011;6244;51.460;7.090;2023-11-21T19:14:16;3.13;;;2.05;;
12359;SDS011;6244;51.460;7.090;2023-11-21T19:19:13;3.45;;;2.05;;
12359;SDS011;6244;51.460;7.090;2023-11-21T19:24:11;4.43;;;2.55;;
12359;SDS011;6244;51.460;7.090;2023-11-21T19:29:08;3.05;;;1.90;;
12359;SDS011;6244;51.460;7.090;2023-11-21T19:34:04;2.95;;;1.95;;
12359;SDS011;6244;51.460;7.090;2023-11-21T19:39:01;5.10;;;2.30;;
12359;SDS011;6244;51.460;7.090;2023-11-21T19:43:59;2.15;;;1.88;;
12359;SDS011;6244;51.460;7.090;2023-11-21T19:48:56;4.10;;;1.95;;
12359;SDS011;6244;51.460;7.090;2023-11-21T19:53:54;4.18;;;2.22;;
12359;SDS011;6244;51.460;7.090;2023-11-21T19:59:01;3.17;;;2.58;;
12359;SDS011;6244;51.460;7.090;2023-11-21T20:03:58;2.40;;;2.20;;
12359;SDS011;6244;51.460;7.090;2023-11-21T20:08:57;2.85;;;2.08;;
12359;SDS011;6244;51.460;7.090;2023-11-21T20:13:56;5.50;;;2.78;;
12359;SDS011;6244;51.460;7.090;2023-11-21T20:18:56;2.60;;;2.22;;
12359;SDS011;6244;51.460;7.090;2023-11-21T20:23:55;4.97;;;2.83;;
12359;SDS011;6244;51.460;7.090;2023-11-21T20:28:52;5.70;;;2.60;;
12359;SDS011;6244;51.460;7.090;2023-11-21T20:33:50;2.17;;;1.70;;
12359;SDS011;6244;51.460;7.090;2023-11-21T20:38:54;5.55;;;2.97;;
12359;SDS011;6244;51.460;7.090;2023-11-21T20:43:50;3.25;;;2.30;;
12359;SDS011;6244;51.460;7.090;2023-11-21T20:48:47;3.38;;;2.13;;
12359;SDS011;6244;51.460;7.090;2023-11-21T20:53:44;5.30;;;2.60;;
12359;SDS011;6244;51.460;7.090;2023-11-21T20:58:45;5.18;;;2.97;;
12359;SDS011;6244;51.460;7.090;2023-11-21T21:03:41;4.43;;;2.53;;
12359;SDS011;6244;51.460;7.090;2023-11-21T21:08:40;4.53;;;2.70;;
12359;SDS011;6244;51.460;7.090;2023-11-21T21:13:37;3.35;;;2.55;;
12359;SDS011;6244;51.460;7.090;2023-11-21T21:18:35;3.97;;;2.33;;
12359;SDS011;6244;51.460;7.090;2023-11-21T21:23:32;3.88;;;2.17;;
12359;SDS011;6244;51.460;7.090;2023-11-21T21:28:29;3.60;;;2.35;;
12359;SDS011;6244;51.460;7.090;2023-11-21T21:33:26;3.70;;;2.08;;
12359;SDS011;6244;51.460;7.090;2023-11-21T21:38:23;1.77;;;1.45;;
12359;SDS011;6244;51.460;7.090;2023-11-21T21:43:20;2.58;;;2.15;;
12359;SDS011;6244;51.460;7.090;2023-11-21T21:48:16;5.22;;;2.47;;
12359;SDS011;6244;51.460;7.090;2023-11-21T21:53:13;4.00;;;2.17;;
12359;SDS011;6244;51.460;7.090;2023-11-21T21:58:11;4.85;;;2.58;;
12359;SDS011;6244;51.460;7.090;2023-11-21T22:03:07;4.45;;;2.67;;
12359;SDS011;6244;51.460;7.090;2023-11-21T22:08:04;3.92;;;2.63;;
12359;SDS011;6244;51.460;7.090;2023-11-21T22:13:02;3.10;;;2.40;;
12359;SDS011;6244;51.460;7.090;2023-11-21T22:18:00;3.50;;;2.70;;
12359;SDS011;6244;51.460;7.090;2023-11-21T22:22:56;2.70;;;1.98;;
12359;SDS011;6244;51.460;7.090;2023-11-21T22:27:53;6.15;;;2.42;;
12359;SDS011;6244;51.460;7.090;2023-11-21T22:32:49;3.83;;;2.00;;
12359;SDS011;6244;51.460;7.090;2023-11-21T22:37:48;4.15;;;2.70;;
12359;SDS011;6244;51.460;7.090;2023-11-21T22:42:44;2.10;;;1.77;;
12359;SDS011;6244;51.460;7.090;2023-11-21T22:47:41;4.28;;;2.40;;
12359;SDS011;6244;51.460;7.090;2023-11-21T22:52:37;6.82;;;2.95;;
12359;SDS011;6244;51.460;7.090;2023-11-21T22:57:35;3.10;;;2.22;;
12359;SDS011;6244;51.460;7.090;2023-11-21T23:02:32;2.72;;;1.60;;
12359;SDS011;6244;51.460;7.090;2023-11-21T23:07:29;2.05;;;1.30;;
12359;SDS011;6244;51.460;7.090;2023-11-21T23:12:25;2.08;;;1.65;;
12359;SDS011;6244;51.460;7.090;2023-11-21T23:17:23;3.28;;;1.42;;
12359;SDS011;6244;51.460;7.090;2023-11-21T23:22:22;3.42;;;2.08;;
12359;SDS011;6244;51.460;7.090;2023-11-21T23:27:21;2.67;;;1.90;;
12359;SDS011;6244;51.460;7.090;2023-11-21T23:32:17;3.80;;;1.90;;
12359;SDS011;6244;51.460;7.090;2023-11-21T23:37:16;2.17;;;1.20;;
12359;SDS011;6244;51.460;7.090;2023-11-21T23:42:12;2.67;;;1.90;;
12359;SDS011;6244;51.460;7.090;2023-11-21T23:47:11;3.17;;;1.58;;
12359;SDS011;6244;51.460;7.090;2023-11-21T23:52:07;2.33;;;1.50;;
12359;SDS011;6244;51.460;7.090;2023-11-21T23:57:05;1.42;;;1.35;;
